sensor_id;sensor_type;location;lat;lon;timestamp;temperature;humidity
16867;DHT22;8550;52.596;13.320;2023-06-22T00:02:07;19.50;99.90
16867;DHT22;8550;52.596;13.320;2023-06-22T00:07:09;19.50;99.90
16867;DHT22;8550;52.596;13.320;2023-06-22T00:12:11;19.60;99.90
16867;DHT22;8550;52.596;13.320;2023-06-22T00:17:14;19.40;99.90
16867;DHT22;8550;52.596;13.320;2023-06-22T00:22:16;19.40;99.90
16867;DHT22;8550;52.596;13.320;2023-06-22T00:27:18;19.40;99.90
16867;DHT22;8550;52.596;13.320;2023-06-22T00:32:21;19.30;99.90
16867;DHT22;8550;52.596;13.320;2023-06-22T00:37:23;19.30;99.90
16867;DHT22;8550;52.596;13.320;2023-06-22T00:42:26;19.30;99.90
16867;DHT22;8550;52.596;13.320;2023-06-22T00:47:29;19.40;99.90
16867;DHT22;8550;52.596;13.320;2023-06-22T00:52:31;19.30;99.90
16867;DHT22;8550;52.596;13.320;2023-06-22T00:57:35;19.20;99.90
16867;DHT22;8550;52.596;13.320;2023-06-22T01:02:39;19.10;99.90
16867;DHT22;8550;52.596;13.320;2023-06-22T01:07:50;19.00;99.90
16867;DHT22;8550;52.596;13.320;2023-06-22T01:12:58;19.00;99.90
16867;DHT22;8550;52.596;13.320;2023-06-22T01:18:04;18.80;99.90
16867;DHT22;8550;52.596;13.320;2023-06-22T01:23:15;18.70;99.90
16867;DHT22;8550;52.596;13.320;2023-06-22T01:28:31;18.60;99.90
16867;DHT22;8550;52.596;13.320;2023-06-22T01:33:37;18.50;99.90
16867;DHT22;8550;52.596;13.320;2023-06-22T01:38:39;18.50;99.90
16867;DHT22;8550;52.596;13.320;2023-06-22T01:43:44;18.60;99.90
16867;DHT22;8550;52.596;13.320;2023-06-22T01:48:47;18.50;99.90
16867;DHT22;8550;52.596;13.320;2023-06-22T01:53:49;18.60;99.90
16867;DHT22;8550;52.596;13.320;2023-06-22T01:58:57;18.60;99.90
16867;DHT22;8550;52.596;13.320;2023-06-22T02:04:05;18.60;99.90
16867;DHT22;8550;52.596;13.320;2023-06-22T02:09:09;18.50;99.90
16867;DHT22;8550;52.596;13.320;2023-06-22T02:14:16;18.50;99.90
16867;DHT22;8550;52.596;13.320;2023-06-22T02:19:22;18.30;99.90
16867;DHT22;8550;52.596;13.320;2023-06-22T02:24:25;18.30;99.90
16867;DHT22;8550;52.596;13.320;2023-06-22T02:29:28;18.40;99.90
16867;DHT22;8550;52.596;13.320;2023-06-22T02:34:31;18.40;99.90
16867;DHT22;8550;52.596;13.320;2023-06-22T02:39:34;18.40;99.90
16867;DHT22;8550;52.596;13.320;2023-06-22T02:44:37;18.40;99.90
16867;DHT22;8550;52.596;13.320;2023-06-22T02:49:39;18.50;99.90
16867;DHT22;8550;52.596;13.320;2023-06-22T02:54:42;18.60;99.90
16867;DHT22;8550;52.596;13.320;2023-06-22T02:59:47;18.80;99.90
16867;DHT22;8550;52.596;13.320;2023-06-22T03:04:49;18.80;99.90
16867;DHT22;8550;52.596;13.320;2023-06-22T03:09:51;18.90;99.90
16867;DHT22;8550;52.596;13.320;2023-06-22T03:14:54;18.90;99.90
16867;DHT22;8550;52.596;13.320;2023-06-22T03:19:56;18.80;99.90
16867;DHT22;8550;52.596;13.320;2023-06-22T03:24:58;18.80;99.90
16867;DHT22;8550;52.596;13.320;2023-06-22T03:30:01;18.70;99.90
16867;DHT22;8550;52.596;13.320;2023-06-22T03:35:04;18.80;99.90
16867;DHT22;8550;52.596;13.320;2023-06-22T03:40:07;18.90;99.90
16867;DHT22;8550;52.596;13.320;2023-06-22T03:45:11;19.00;99.90
16867;DHT22;8550;52.596;13.320;2023-06-22T03:50:13;19.10;99.90
16867;DHT22;8550;52.596;13.320;2023-06-22T03:55:15;19.20;99.90
16867;DHT22;8550;52.596;13.320;2023-06-22T04:00:18;19.30;99.90
16867;DHT22;8550;52.596;13.320;2023-06-22T04:05:21;19.30;99.90
16867;DHT22;8550;52.596;13.320;2023-06-22T04:10:23;19.30;99.90
16867;DHT22;8550;52.596;13.320;2023-06-22T04:15:27;19.20;99.90
16867;DHT22;8550;52.596;13.320;2023-06-22T04:20:29;19.30;99.90
16867;DHT22;8550;52.596;13.320;2023-06-22T04:25:32;19.40;99.90
16867;DHT22;8550;52.596;13.320;2023-06-22T04:30:35;19.50;99.90
16867;DHT22;8550;52.596;13.320;2023-06-22T04:35:37;19.70;99.90
16867;DHT22;8550;52.596;13.320;2023-06-22T04:40:42;19.80;99.90
16867;DHT22;8550;52.596;13.320;2023-06-22T04:45:45;20.20;99.90
16867;DHT22;8550;52.596;13.320;2023-06-22T04:50:47;20.60;99.90
16867;DHT22;8550;52.596;13.320;2023-06-22T04:55:49;20.90;99.90
16867;DHT22;8550;52.596;13.320;2023-06-22T05:00:55;21.10;99.90
16867;DHT22;8550;52.596;13.320;2023-06-22T05:05:57;21.40;99.90
16867;DHT22;8550;52.596;13.320;2023-06-22T05:10:59;21.50;99.90
16867;DHT22;8550;52.596;13.320;2023-06-22T05:16:03;21.60;99.90
16867;DHT22;8550;52.596;13.320;2023-06-22T05:21:06;22.30;99.90
16867;DHT22;8550;52.596;13.320;2023-06-22T05:26:08;22.40;99.90
16867;DHT22;8550;52.596;13.320;2023-06-22T05:31:12;22.60;99.90
16867;DHT22;8550;52.596;13.320;2023-06-22T05:36:15;22.70;99.90
16867;DHT22;8550;52.596;13.320;2023-06-22T05:41:17;22.60;99.90
16867;DHT22;8550;52.596;13.320;2023-06-22T05:46:20;22.70;99.90
16867;DHT22;8550;52.596;13.320;2023-06-22T05:51:22;23.00;99.90
16867;DHT22;8550;52.596;13.320;2023-06-22T05:56:24;22.60;99.90
16867;DHT22;8550;52.596;13.320;2023-06-22T06:01:27;22.70;99.90
16867;DHT22;8550;52.596;13.320;2023-06-22T06:06:35;22.80;99.90
16867;DHT22;8550;52.596;13.320;2023-06-22T06:11:37;23.10;99.90
16867;DHT22;8550;52.596;13.320;2023-06-22T06:16:41;23.30;99.90
16867;DHT22;8550;52.596;13.320;2023-06-22T06:21:43;23.20;99.90
16867;DHT22;8550;52.596;13.320;2023-06-22T06:26:45;23.40;99.90
16867;DHT22;8550;52.596;13.320;2023-06-22T06:31:49;23.30;99.90
16867;DHT22;8550;52.596;13.320;2023-06-22T06:36:50;23.30;99.90
16867;DHT22;8550;52.596;13.320;2023-06-22T06:41:52;23.30;99.90
16867;DHT22;8550;52.596;13.320;2023-06-22T06:46:56;23.60;99.90
16867;DHT22;8550;52.596;13.320;2023-06-22T06:51:57;23.90;99.90
16867;DHT22;8550;52.596;13.320;2023-06-22T06:56:59;24.00;99.90
16867;DHT22;8550;52.596;13.320;2023-06-22T07:02:05;24.30;99.90
16867;DHT22;8550;52.596;13.320;2023-06-22T07:07:07;24.70;99.90
16867;DHT22;8550;52.596;13.320;2023-06-22T07:12:09;24.70;99.90
16867;DHT22;8550;52.596;13.320;2023-06-22T07:17:12;24.90;99.90
16867;DHT22;8550;52.596;13.320;2023-06-22T07:22:14;24.90;99.90
16867;DHT22;8550;52.596;13.320;2023-06-22T07:27:16;24.70;99.60
16867;DHT22;8550;52.596;13.320;2023-06-22T07:32:21;24.90;99.60
16867;DHT22;8550;52.596;13.320;2023-06-22T07:37:23;24.80;98.80
16867;DHT22;8550;52.596;13.320;2023-06-22T07:42:25;25.10;99.10
16867;DHT22;8550;52.596;13.320;2023-06-22T07:47:28;25.40;98.80
16867;DHT22;8550;52.596;13.320;2023-06-22T07:52:30;25.60;98.40
16867;DHT22;8550;52.596;13.320;2023-06-22T07:57:33;25.50;96.20
16867;DHT22;8550;52.596;13.320;2023-06-22T08:02:36;25.80;95.20
16867;DHT22;8550;52.596;13.320;2023-06-22T08:07:38;26.00;95.10
16867;DHT22;8550;52.596;13.320;2023-06-22T08:12:41;26.60;94.40
16867;DHT22;8550;52.596;13.320;2023-06-22T08:17:45;26.70;92.90
16867;DHT22;8550;52.596;13.320;2023-06-22T08:22:47;26.80;92.80
16867;DHT22;8550;52.596;13.320;2023-06-22T08:27:49;26.70;93.00
16867;DHT22;8550;52.596;13.320;2023-06-22T08:32:52;26.90;92.10
16867;DHT22;8550;52.596;13.320;2023-06-22T08:37:54;26.90;92.10
16867;DHT22;8550;52.596;13.320;2023-06-22T08:42:57;27.10;92.40
16867;DHT22;8550;52.596;13.320;2023-06-22T08:48:00;26.90;90.80
16867;DHT22;8550;52.596;13.320;2023-06-22T08:53:02;27.00;89.40
16867;DHT22;8550;52.596;13.320;2023-06-22T08:58:04;26.90;90.10
16867;DHT22;8550;52.596;13.320;2023-06-22T09:03:08;26.90;86.00
16867;DHT22;8550;52.596;13.320;2023-06-22T09:08:11;27.20;87.10
16867;DHT22;8550;52.596;13.320;2023-06-22T09:13:13;27.60;86.40
16867;DHT22;8550;52.596;13.320;2023-06-22T09:18:17;27.90;84.60
16867;DHT22;8550;52.596;13.320;2023-06-22T09:23:19;27.90;82.50
16867;DHT22;8550;52.596;13.320;2023-06-22T09:28:21;28.10;82.40
16867;DHT22;8550;52.596;13.320;2023-06-22T09:33:24;28.20;82.40
16867;DHT22;8550;52.596;13.320;2023-06-22T09:38:26;29.00;82.70
16867;DHT22;8550;52.596;13.320;2023-06-22T09:43:29;29.20;78.30
16867;DHT22;8550;52.596;13.320;2023-06-22T09:48:32;29.50;78.50
16867;DHT22;8550;52.596;13.320;2023-06-22T09:53:34;29.60;77.30
16867;DHT22;8550;52.596;13.320;2023-06-22T09:58:36;29.60;76.20
16867;DHT22;8550;52.596;13.320;2023-06-22T10:03:39;29.70;77.00
16867;DHT22;8550;52.596;13.320;2023-06-22T10:08:42;30.00;76.20
16867;DHT22;8550;52.596;13.320;2023-06-22T10:13:44;30.20;74.30
16867;DHT22;8550;52.596;13.320;2023-06-22T10:18:47;30.50;72.90
16867;DHT22;8550;52.596;13.320;2023-06-22T10:23:49;30.40;71.60
16867;DHT22;8550;52.596;13.320;2023-06-22T10:28:51;30.30;73.70
16867;DHT22;8550;52.596;13.320;2023-06-22T10:33:55;30.60;73.20
16867;DHT22;8550;52.596;13.320;2023-06-22T10:38:57;31.20;74.30
16867;DHT22;8550;52.596;13.320;2023-06-22T10:44:00;30.50;71.60
16867;DHT22;8550;52.596;13.320;2023-06-22T10:49:03;30.20;71.30
16867;DHT22;8550;52.596;13.320;2023-06-22T10:54:05;30.30;70.50
16867;DHT22;8550;52.596;13.320;2023-06-22T10:59:07;30.70;71.00
16867;DHT22;8550;52.596;13.320;2023-06-22T11:04:10;31.20;68.80
16867;DHT22;8550;52.596;13.320;2023-06-22T11:09:12;31.30;67.30
16867;DHT22;8550;52.596;13.320;2023-06-22T11:14:19;31.30;65.50
16867;DHT22;8550;52.596;13.320;2023-06-22T11:19:22;32.60;61.90
16867;DHT22;8550;52.596;13.320;2023-06-22T11:24:24;32.80;61.20
16867;DHT22;8550;52.596;13.320;2023-06-22T11:29:26;32.00;62.80
16867;DHT22;8550;52.596;13.320;2023-06-22T11:34:29;31.60;62.60
16867;DHT22;8550;52.596;13.320;2023-06-22T11:39:31;33.00;60.30
16867;DHT22;8550;52.596;13.320;2023-06-22T11:44:33;36.20;52.70
16867;DHT22;8550;52.596;13.320;2023-06-22T11:49:36;39.40;49.80
16867;DHT22;8550;52.596;13.320;2023-06-22T11:54:38;39.40;45.20
16867;DHT22;8550;52.596;13.320;2023-06-22T11:59:40;39.40;44.10
16867;DHT22;8550;52.596;13.320;2023-06-22T12:04:44;41.60;41.10
16867;DHT22;8550;52.596;13.320;2023-06-22T12:09:47;40.30;40.20
16867;DHT22;8550;52.596;13.320;2023-06-22T12:14:48;37.10;45.40
16867;DHT22;8550;52.596;13.320;2023-06-22T12:19:52;36.70;44.00
16867;DHT22;8550;52.596;13.320;2023-06-22T12:24:54;37.00;44.60
16867;DHT22;8550;52.596;13.320;2023-06-22T12:29:56;37.00;44.70
16867;DHT22;8550;52.596;13.320;2023-06-22T12:34:59;37.10;46.10
16867;DHT22;8550;52.596;13.320;2023-06-22T12:40:01;38.20;44.70
16867;DHT22;8550;52.596;13.320;2023-06-22T12:45:05;40.00;42.20
16867;DHT22;8550;52.596;13.320;2023-06-22T12:50:09;41.20;40.60
16867;DHT22;8550;52.596;13.320;2023-06-22T12:55:11;37.70;41.20
16867;DHT22;8550;52.596;13.320;2023-06-22T13:00:14;36.10;44.50
16867;DHT22;8550;52.596;13.320;2023-06-22T13:05:17;37.70;45.30
16867;DHT22;8550;52.596;13.320;2023-06-22T13:10:19;38.50;43.60
16867;DHT22;8550;52.596;13.320;2023-06-22T13:15:21;35.40;46.90
16867;DHT22;8550;52.596;13.320;2023-06-22T13:20:24;34.50;47.00
16867;DHT22;8550;52.596;13.320;2023-06-22T13:25:26;33.60;50.20
16867;DHT22;8550;52.596;13.320;2023-06-22T13:30:28;33.40;50.30
16867;DHT22;8550;52.596;13.320;2023-06-22T13:35:31;33.00;50.20
16867;DHT22;8550;52.596;13.320;2023-06-22T13:40:33;33.00;52.80
16867;DHT22;8550;52.596;13.320;2023-06-22T13:45:35;32.50;52.20
16867;DHT22;8550;52.596;13.320;2023-06-22T13:50:39;32.50;52.60
16867;DHT22;8550;52.596;13.320;2023-06-22T13:55:40;32.70;53.90
16867;DHT22;8550;52.596;13.320;2023-06-22T14:00:43;32.90;52.20
16867;DHT22;8550;52.596;13.320;2023-06-22T14:05:47;32.50;53.60
16867;DHT22;8550;52.596;13.320;2023-06-22T14:10:49;32.60;54.20
16867;DHT22;8550;52.596;13.320;2023-06-22T14:15:51;32.90;53.70
16867;DHT22;8550;52.596;13.320;2023-06-22T14:20:56;32.60;51.90
16867;DHT22;8550;52.596;13.320;2023-06-22T14:25:57;33.40;51.70
16867;DHT22;8550;52.596;13.320;2023-06-22T14:30:59;34.20;52.40
16867;DHT22;8550;52.596;13.320;2023-06-22T14:36:03;35.30;49.70
16867;DHT22;8550;52.596;13.320;2023-06-22T14:41:05;35.00;48.80
16867;DHT22;8550;52.596;13.320;2023-06-22T14:46:07;36.20;47.40
16867;DHT22;8550;52.596;13.320;2023-06-22T14:51:11;36.90;45.80
16867;DHT22;8550;52.596;13.320;2023-06-22T14:56:13;37.60;45.80
16867;DHT22;8550;52.596;13.320;2023-06-22T15:01:16;37.10;44.30
16867;DHT22;8550;52.596;13.320;2023-06-22T15:06:21;36.50;46.60
16867;DHT22;8550;52.596;13.320;2023-06-22T15:11:23;35.10;47.40
16867;DHT22;8550;52.596;13.320;2023-06-22T15:16:25;32.90;50.80
16867;DHT22;8550;52.596;13.320;2023-06-22T15:21:28;32.00;52.80
16867;DHT22;8550;52.596;13.320;2023-06-22T15:26:30;31.80;53.60
16867;DHT22;8550;52.596;13.320;2023-06-22T15:31:33;31.60;55.20
16867;DHT22;8550;52.596;13.320;2023-06-22T15:36:36;31.20;55.40
16867;DHT22;8550;52.596;13.320;2023-06-22T15:41:40;31.10;56.80
16867;DHT22;8550;52.596;13.320;2023-06-22T15:46:43;30.90;56.90
16867;DHT22;8550;52.596;13.320;2023-06-22T15:51:46;31.00;57.00
16867;DHT22;8550;52.596;13.320;2023-06-22T15:56:48;30.80;55.70
16867;DHT22;8550;52.596;13.320;2023-06-22T16:01:50;30.90;57.70
16867;DHT22;8550;52.596;13.320;2023-06-22T16:06:53;30.60;57.70
16867;DHT22;8550;52.596;13.320;2023-06-22T16:11:55;30.50;58.70
16867;DHT22;8550;52.596;13.320;2023-06-22T16:16:57;30.60;57.90
16867;DHT22;8550;52.596;13.320;2023-06-22T16:22:01;30.40;57.30
16867;DHT22;8550;52.596;13.320;2023-06-22T16:27:03;30.20;58.20
16867;DHT22;8550;52.596;13.320;2023-06-22T16:32:07;30.10;59.10
16867;DHT22;8550;52.596;13.320;2023-06-22T16:37:10;30.20;59.30
16867;DHT22;8550;52.596;13.320;2023-06-22T16:42:12;30.70;59.10
16867;DHT22;8550;52.596;13.320;2023-06-22T16:47:14;30.10;58.60
16867;DHT22;8550;52.596;13.320;2023-06-22T16:52:18;29.70;60.00
16867;DHT22;8550;52.596;13.320;2023-06-22T16:57:20;29.50;60.40
16867;DHT22;8550;52.596;13.320;2023-06-22T17:02:24;29.30;61.90
16867;DHT22;8550;52.596;13.320;2023-06-22T17:07:29;29.40;60.90
16867;DHT22;8550;52.596;13.320;2023-06-22T17:12:33;29.40;61.40
16867;DHT22;8550;52.596;13.320;2023-06-22T17:17:38;29.40;61.00
16867;DHT22;8550;52.596;13.320;2023-06-22T17:22:43;29.50;61.70
16867;DHT22;8550;52.596;13.320;2023-06-22T17:27:47;29.30;62.00
16867;DHT22;8550;52.596;13.320;2023-06-22T17:32:49;28.90;64.10
16867;DHT22;8550;52.596;13.320;2023-06-22T17:37:54;28.80;63.90
16867;DHT22;8550;52.596;13.320;2023-06-22T17:43:02;28.30;65.80
16867;DHT22;8550;52.596;13.320;2023-06-22T17:48:08;28.10;65.80
16867;DHT22;8550;52.596;13.320;2023-06-22T17:53:12;27.60;68.90
16867;DHT22;8550;52.596;13.320;2023-06-22T17:58:16;27.20;70.00
16867;DHT22;8550;52.596;13.320;2023-06-22T18:03:23;27.20;70.40
16867;DHT22;8550;52.596;13.320;2023-06-22T18:08:28;27.10;71.40
16867;DHT22;8550;52.596;13.320;2023-06-22T18:13:30;26.90;71.10
16867;DHT22;8550;52.596;13.320;2023-06-22T18:18:33;26.80;72.50
16867;DHT22;8550;52.596;13.320;2023-06-22T18:23:38;26.70;72.70
16867;DHT22;8550;52.596;13.320;2023-06-22T18:28:40;26.60;73.80
16867;DHT22;8550;52.596;13.320;2023-06-22T18:33:43;26.40;74.50
16867;DHT22;8550;52.596;13.320;2023-06-22T18:38:47;26.30;75.60
16867;DHT22;8550;52.596;13.320;2023-06-22T18:43:52;26.20;76.70
16867;DHT22;8550;52.596;13.320;2023-06-22T18:48:59;26.10;77.80
16867;DHT22;8550;52.596;13.320;2023-06-22T18:54:05;26.00;79.40
16867;DHT22;8550;52.596;13.320;2023-06-22T18:59:11;25.90;79.60
16867;DHT22;8550;52.596;13.320;2023-06-22T19:04:15;25.80;80.70
16867;DHT22;8550;52.596;13.320;2023-06-22T19:09:19;25.70;81.40
16867;DHT22;8550;52.596;13.320;2023-06-22T19:14:22;25.50;82.40
16867;DHT22;8550;52.596;13.320;2023-06-22T19:19:24;25.50;82.70
16867;DHT22;8550;52.596;13.320;2023-06-22T19:24:31;25.50;82.50
16867;DHT22;8550;52.596;13.320;2023-06-22T19:29:34;25.40;83.70
16867;DHT22;8550;52.596;13.320;2023-06-22T19:34:41;25.30;83.70
16867;DHT22;8550;52.596;13.320;2023-06-22T19:39:51;25.30;84.00
16867;DHT22;8550;52.596;13.320;2023-06-22T19:44:53;25.30;85.30
16867;DHT22;8550;52.596;13.320;2023-06-22T19:49:58;25.00;85.80
16867;DHT22;8550;52.596;13.320;2023-06-22T19:55:03;24.90;86.10
16867;DHT22;8550;52.596;13.320;2023-06-22T20:00:07;24.90;87.60
16867;DHT22;8550;52.596;13.320;2023-06-22T20:05:13;24.90;87.40
16867;DHT22;8550;52.596;13.320;2023-06-22T20:10:18;24.90;88.60
16867;DHT22;8550;52.596;13.320;2023-06-22T20:15:25;24.70;90.10
16867;DHT22;8550;52.596;13.320;2023-06-22T20:20:29;24.60;93.10
16867;DHT22;8550;52.596;13.320;2023-06-22T20:25:36;24.40;92.70
16867;DHT22;8550;52.596;13.320;2023-06-22T20:30:39;24.30;94.50
16867;DHT22;8550;52.596;13.320;2023-06-22T20:35:41;24.30;94.70
16867;DHT22;8550;52.596;13.320;2023-06-22T20:40:46;24.30;95.20
16867;DHT22;8550;52.596;13.320;2023-06-22T20:45:48;24.10;99.90
16867;DHT22;8550;52.596;13.320;2023-06-22T20:50:50;22.20;99.90
16867;DHT22;8550;52.596;13.320;2023-06-22T20:55:53;21.10;99.90
16867;DHT22;8550;52.596;13.320;2023-06-22T21:00:55;20.60;99.90
16867;DHT22;8550;52.596;13.320;2023-06-22T21:06:00;20.40;99.90
16867;DHT22;8550;52.596;13.320;2023-06-22T21:11:04;20.20;99.90
16867;DHT22;8550;52.596;13.320;2023-06-22T21:16:06;20.10;99.90
16867;DHT22;8550;52.596;13.320;2023-06-22T21:21:08;20.00;99.90
16867;DHT22;8550;52.596;13.320;2023-06-22T21:26:11;19.90;99.90
16867;DHT22;8550;52.596;13.320;2023-06-22T21:31:13;19.80;99.90
16867;DHT22;8550;52.596;13.320;2023-06-22T21:36:15;19.80;99.90
16867;DHT22;8550;52.596;13.320;2023-06-22T21:41:19;19.80;99.90
16867;DHT22;8550;52.596;13.320;2023-06-22T21:46:21;19.80;99.90
16867;DHT22;8550;52.596;13.320;2023-06-22T21:51:23;19.70;99.90
16867;DHT22;8550;52.596;13.320;2023-06-22T21:56:27;19.60;99.90
16867;DHT22;8550;52.596;13.320;2023-06-22T22:01:28;19.70;99.90
16867;DHT22;8550;52.596;13.320;2023-06-22T22:06:30;19.50;99.90
16867;DHT22;8550;52.596;13.320;2023-06-22T22:11:35;19.50;99.90
16867;DHT22;8550;52.596;13.320;2023-06-22T22:16:37;19.60;99.90
16867;DHT22;8550;52.596;13.320;2023-06-22T22:21:39;19.40;99.90
16867;DHT22;8550;52.596;13.320;2023-06-22T22:26:43;19.40;99.90
16867;DHT22;8550;52.596;13.320;2023-06-22T22:31:44;19.40;99.90
16867;DHT22;8550;52.596;13.320;2023-06-22T22:36:50;19.20;99.90
16867;DHT22;8550;52.596;13.320;2023-06-22T22:41:54;19.10;99.90
16867;DHT22;8550;52.596;13.320;2023-06-22T22:46:57;19.00;99.90
16867;DHT22;8550;52.596;13.320;2023-06-22T22:52:00;18.80;99.90
16867;DHT22;8550;52.596;13.320;2023-06-22T22:57:08;18.80;99.90
16867;DHT22;8550;52.596;13.320;2023-06-22T23:02:10;18.80;99.90
16867;DHT22;8550;52.596;13.320;2023-06-22T23:07:13;18.90;99.90
16867;DHT22;8550;52.596;13.320;2023-06-22T23:12:16;18.80;99.90
16867;DHT22;8550;52.596;13.320;2023-06-22T23:17:18;18.80;99.90
16867;DHT22;8550;52.596;13.320;2023-06-22T23:22:20;18.70;99.90
16867;DHT22;8550;52.596;13.320;2023-06-22T23:27:25;18.60;99.90
16867;DHT22;8550;52.596;13.320;2023-06-22T23:32:27;18.70;99.90
16867;DHT22;8550;52.596;13.320;2023-06-22T23:37:29;18.60;99.90
16867;DHT22;8550;52.596;13.320;2023-06-22T23:42:32;18.40;99.90
16867;DHT22;8550;52.596;13.320;2023-06-22T23:47:34;18.30;99.90
16867;DHT22;8550;52.596;13.320;2023-06-22T23:52:38;18.10;99.90
16867;DHT22;8550;52.596;13.320;2023-06-22T23:57:42;18.10;99.90
